Time;durP1;ratioP1;P1;durP2;ratioP2;P2;SDS_P1;SDS_P2;PMS_P1;PMS_P2;Temp;Humidity;BMP_temperature;BMP_pressure;BME280_temperature;BME280_humidity;BME280_pressure;Samples;Min_cycle;Max_cycle;Signal;HPM_P1;HPM_P2
2021/06/15 00:00:28;;;;;;;8.25;3.85;;;256.20;2252.80;;;;;;5074420;28;20048;-67
2021/06/15 00:02:53;;;;;;;7.38;4.35;;;231.30;2252.80;;;;;;5074291;28;20496;-66
2021/06/15 00:05:19;;;;;;;8.13;4.75;;;231.30;2252.80;;;;;;5074390;28;20060;-67
2021/06/15 00:07:45;;;;;;;7.70;4.40;;;231.20;2252.80;;;;;;5074271;28;20024;-67
2021/06/15 00:10:23;;;;;;;8.52;4.43;;;231.20;2252.80;;;;;;5073958;28;20086;-68
2021/06/15 00:12:51;;;;;;;7.70;4.03;;;231.20;2252.80;;;;;;5073922;28;20021;-68
2021/06/15 00:15:17;;;;;;;7.32;4.13;;;231.20;2252.80;;;;;;5073825;28;20056;-66
2021/06/15 00:17:44;;;;;;;5.60;3.60;;;231.20;2252.80;;;;;;5073019;28;20047;-66
2021/06/15 00:20:10;;;;;;;6.13;4.18;;;231.20;2252.80;;;;;;5073871;28;20027;-67
2021/06/15 00:22:36;;;;;;;6.68;4.03;;;231.20;2252.80;;;;;;5074010;28;20382;-67
2021/06/15 00:25:02;;;;;;;7.88;4.30;;;231.20;2252.80;;;;;;5073917;28;20028;-67
2021/06/15 00:27:29;;;;;;;8.40;4.00;;;231.20;2252.80;;;;;;5073664;28;20031;-67
2021/06/15 00:29:55;;;;;;;5.65;4.13;;;231.20;2252.80;;;;;;5073850;28;20032;-68
2021/06/15 00:32:21;;;;;;;8.70;4.72;;;231.20;2252.80;;;;;;5073689;28;20017;-68
2021/06/15 00:34:47;;;;;;;7.28;4.45;;;231.10;2252.80;;;;;;5073589;28;20074;-68
2021/06/15 00:37:13;;;;;;;8.20;4.20;;;231.20;2252.80;;;;;;5073573;28;20024;-67
2021/06/15 00:39:39;;;;;;;6.50;4.10;;;231.20;2252.80;;;;;;5055508;28;20079;-66
2021/06/15 00:42:06;;;;;;;8.27;4.30;;;231.20;2252.80;;;;;;5073149;28;20040;-70
2021/06/15 00:44:33;;;;;;;7.32;4.10;;;231.20;2252.80;;;;;;5073340;28;20016;-70
2021/06/15 00:46:59;;;;;;;6.95;4.40;;;231.30;2252.80;;;;;;5073212;28;20035;-70
2021/06/15 00:49:26;;;;;;;7.43;4.50;;;231.30;2252.80;;;;;;5073262;28;20016;-68
2021/06/15 00:51:55;;;;;;;6.78;4.43;;;231.30;2252.80;;;;;;5073200;28;20020;-67
2021/06/15 00:54:21;;;;;;;8.50;4.57;;;231.30;2252.80;;;;;;5073208;28;20450;-67
2021/06/15 00:56:47;;;;;;;6.15;4.18;;;256.00;2252.80;;;;;;5073068;28;20078;-67
2021/06/15 00:59:12;;;;;;;8.20;5.00;;;231.30;2252.80;;;;;;5072968;28;20052;-67
2021/06/15 01:01:38;;;;;;;7.50;4.45;;;231.30;2252.80;;;;;;5072944;28;20023;-67
2021/06/15 01:04:04;;;;;;;6.10;4.50;;;231.30;2252.80;;;;;;5072914;28;20047;-68
2021/06/15 01:06:36;;;;;;;7.93;4.15;;;231.30;2252.80;;;;;;5072978;28;20047;-67
2021/06/15 01:09:17;;;;;;;7.93;3.55;;;231.30;2252.80;;;;;;5073268;28;20116;-67
2021/06/15 01:12:11;;;;;;;5.72;3.55;;;231.30;2252.80;;;;;;5061210;28;20036;-68
2021/06/15 01:14:55;;;;;;;6.13;3.92;;;231.30;2252.80;;;;;;5045539;28;20029;-67
2021/06/15 01:17:26;;;;;;;6.90;4.20;;;231.30;2252.80;;;;;;5061517;28;20013;-67
2021/06/15 01:20:04;;;;;;;7.20;4.40;;;231.30;2252.80;;;;;;5072687;28;20024;-67
2021/06/15 01:23:09;;;;;;;10.10;4.28;;;231.30;2252.80;;;;;;5072650;28;20032;-66
2021/06/15 01:25:44;;;;;;;5.47;3.63;;;231.20;2252.80;;;;;;5059044;28;20477;-67
2021/06/15 01:28:19;;;;;;;5.55;3.35;;;231.10;2252.80;;;;;;5072804;28;20029;-67
2021/06/15 01:31:06;;;;;;;13.80;4.07;;;231.00;2252.80;;;;;;5072870;28;20020;-68
2021/06/15 01:33:40;;;;;;;6.88;3.83;;;230.90;2252.80;;;;;;5072466;28;20024;-68
2021/06/15 01:36:09;;;;;;;7.10;3.90;;;230.80;2252.80;;;;;;5072730;28;20028;-66
2021/06/15 01:38:43;;;;;;;4.90;3.75;;;230.80;2252.80;;;;;;5054501;28;20024;-67
2021/06/15 01:41:11;;;;;;;6.25;3.70;;;230.70;2252.80;;;;;;5054440;28;20403;-68
2021/06/15 01:43:42;;;;;;;5.72;3.70;;;230.70;2252.80;;;;;;5072713;28;20477;-68
2021/06/15 01:46:09;;;;;;;6.60;4.10;;;230.70;2252.80;;;;;;5072794;28;20036;-69
2021/06/15 01:48:47;;;;;;;5.00;3.83;;;230.60;2252.80;;;;;;5072821;28;20094;-68
2021/06/15 01:51:15;;;;;;;6.90;4.00;;;230.60;2252.80;;;;;;5072455;28;20099;-67
2021/06/15 01:53:49;;;;;;;5.15;3.85;;;230.70;2252.80;;;;;;5072760;28;20040;-68
2021/06/15 01:56:16;;;;;;;5.65;3.67;;;230.60;2252.80;;;;;;5072651;28;20485;-67
2021/06/15 01:58:44;;;;;;;4.15;3.15;;;230.60;2252.80;;;;;;5072264;28;20086;-67
2021/06/15 02:01:11;;;;;;;4.25;3.00;;;230.60;2252.80;;;;;;5072270;28;20095;-67
2021/06/15 02:03:38;;;;;;;4.35;3.25;;;230.60;2252.80;;;;;;5072349;28;20028;-67
2021/06/15 02:06:05;;;;;;;5.45;3.67;;;230.60;2252.80;;;;;;5072292;28;20021;-68
2021/06/15 02:08:37;;;;;;;81.68;5.00;;;230.60;2252.80;;;;;;5072347;28;20032;-68
2021/06/15 02:11:04;;;;;;;17.38;4.10;;;230.50;2252.80;;;;;;5071989;28;20033;-67
2021/06/15 02:13:31;;;;;;;11.80;4.20;;;230.50;2252.80;;;;;;5072271;28;20542;-66
2021/06/15 02:15:59;;;;;;;49.67;5.68;;;230.40;2252.80;;;;;;5072528;28;20029;-66
2021/06/15 02:18:28;;;;;;;7.93;4.25;;;205.70;2252.80;;;;;;5072185;28;20078;-69
2021/06/15 02:20:56;;;;;;;11.07;4.22;;;205.70;2252.80;;;;;;5072267;28;20036;-67
2021/06/15 02:23:24;;;;;;;6.78;4.43;;;205.70;2252.80;;;;;;5072102;28;20024;-69
2021/06/15 02:26:03;;;;;;;6.28;4.40;;;205.70;2252.80;;;;;;5072322;28;20035;-68
2021/06/15 02:28:29;;;;;;;6.45;4.20;;;205.70;2252.80;;;;;;5071559;28;20554;-68
2021/06/15 02:30:58;;;;;;;6.07;4.60;;;205.70;2252.80;;;;;;5053453;28;20552;-67
2021/06/15 02:33:30;;;;;;;6.82;4.50;;;205.70;2252.80;;;;;;5071487;28;20082;-68
2021/06/15 02:36:04;;;;;;;16.15;4.82;;;205.70;2252.80;;;;;;5072041;28;20082;-67
2021/06/15 02:38:33;;;;;;;86.97;6.00;;;205.60;2252.80;;;;;;5071684;28;20099;-67
2021/06/15 02:41:06;;;;;;;41.40;5.80;;;205.60;2252.80;;;;;;5074608;28;20067;-68
2021/06/15 02:43:34;;;;;;;8.25;4.70;;;205.60;2252.80;;;;;;5075592;28;20020;-68
2021/06/15 02:46:02;;;;;;;61.85;6.30;;;205.70;2252.80;;;;;;5069748;28;20055;-66
2021/06/15 02:48:36;;;;;;;14.02;5.82;;;205.70;2252.80;;;;;;5056412;28;20521;-71
2021/06/15 02:51:05;;;;;;;17.80;5.50;;;230.40;2252.80;;;;;;5075361;28;20479;-70
2021/06/15 02:53:30;;;;;;;20.35;6.07;;;230.40;2252.80;;;;;;5075511;28;20040;-66
2021/06/15 02:56:03;;;;;;;46.28;6.90;;;230.50;2252.80;;;;;;5075276;28;20017;-68
2021/06/15 02:58:29;;;;;;;41.80;6.70;;;230.50;2252.80;;;;;;5075011;28;20031;-67
2021/06/15 03:00:55;;;;;;;66.55;7.25;;;230.50;2252.80;;;;;;5075531;28;20032;-67
2021/06/15 03:03:21;;;;;;;47.20;7.18;;;230.50;2252.80;;;;;;5075240;28;20589;-67
2021/06/15 03:05:46;;;;;;;79.47;7.75;;;230.50;2252.80;;;;;;5075078;28;20107;-69
2021/06/15 03:08:12;;;;;;;63.10;8.60;;;230.50;2252.80;;;;;;5075120;28;20074;-67
2021/06/15 03:10:39;;;;;;;55.58;11.60;;;230.50;2252.80;;;;;;5075379;28;20020;-67
2021/06/15 03:13:10;;;;;;;38.28;11.50;;;230.50;2252.80;;;;;;5075191;28;20031;-68
2021/06/15 03:15:46;;;;;;;61.78;12.32;;;230.50;2252.80;;;;;;5075295;28;20386;-67
2021/06/15 03:18:44;;;;;;;55.58;12.23;;;230.50;2252.80;;;;;;5075031;28;20021;-67
2021/06/15 03:21:13;;;;;;;44.70;10.70;;;230.50;2252.80;;;;;;5034628;28;20032;-71
2021/06/15 03:23:47;;;;;;;64.57;10.80;;;230.60;2252.80;;;;;;5074725;28;20078;-67
2021/06/15 03:26:37;;;;;;;54.33;10.80;;;230.60;2252.80;;;;;;5075192;28;20102;-69
2021/06/15 03:29:04;;;;;;;32.65;10.15;;;230.70;2252.80;;;;;;5074276;28;20028;-66
2021/06/15 03:31:40;;;;;;;49.75;10.30;;;230.80;2252.80;;;;;;5074689;28;20028;-67
2021/06/15 03:34:08;;;;;;;32.17;10.48;;;230.90;2252.80;;;;;;5074578;28;20020;-67
2021/06/15 03:36:37;;;;;;;37.00;10.02;;;230.90;2252.80;;;;;;5074729;28;20032;-67
2021/06/15 03:39:05;;;;;;;39.50;9.57;;;231.00;2252.80;;;;;;5074558;28;20028;-67
2021/06/15 03:41:33;;;;;;;38.05;9.30;;;231.10;2252.80;;;;;;5074556;28;20072;-67
2021/06/15 03:44:02;;;;;;;93.60;10.43;;;231.10;2252.80;;;;;;5074511;28;20119;-67
2021/06/15 03:46:30;;;;;;;52.45;9.57;;;231.20;2252.80;;;;;;5074772;28;20094;-69
2021/06/15 03:48:57;;;;;;;45.63;9.60;;;256.00;2252.80;;;;;;5074476;28;20119;-68
2021/06/15 03:51:27;;;;;;;63.83;9.43;;;256.20;2252.80;;;;;;5074663;28;20032;-68
2021/06/15 03:54:05;;;;;;;34.00;9.93;;;256.40;2252.80;;;;;;5074484;28;20035;-67
2021/06/15 03:56:37;;;;;;;17.05;9.05;;;256.40;2252.80;;;;;;5074178;28;20068;-69
2021/06/15 03:59:06;;;;;;;37.60;9.60;;;256.70;2252.80;;;;;;5074371;28;20048;-67
2021/06/15 04:01:39;;;;;;;35.13;9.15;;;256.70;2252.80;;;;;;5074043;28;20029;-68
2021/06/15 04:04:07;;;;;;;48.53;9.50;;;256.90;2252.80;;;;;;5074442;28;20073;-67
2021/06/15 04:06:45;;;;;;;15.35;8.73;;;281.60;2278.40;;;;;;5056518;28;20393;-67
2021/06/15 04:09:13;;;;;;;29.08;8.45;;;281.60;2278.40;;;;;;5074119;28;20486;-69
2021/06/15 04:11:40;;;;;;;20.67;8.15;;;281.70;2278.40;;;;;;5073835;28;20494;-69
2021/06/15 04:14:09;;;;;;;19.35;8.50;;;281.80;2278.40;;;;;;5074106;28;20017;-68
2021/06/15 04:16:36;;;;;;;13.75;8.90;;;281.80;2278.40;;;;;;5074215;28;20073;-69
2021/06/15 04:19:04;;;;;;;16.85;9.45;;;281.60;2278.40;;;;;;5074043;28;20020;-71
2021/06/15 04:21:33;;;;;;;14.35;9.70;;;281.70;2278.40;;;;;;5073677;28;20033;-67
2021/06/15 04:24:06;;;;;;;16.08;9.10;;;281.70;2278.40;;;;;;5074061;28;20062;-67
2021/06/15 04:26:34;;;;;;;14.82;8.55;;;256.90;2252.80;;;;;;5073815;28;20494;-67
2021/06/15 04:29:01;;;;;;;16.70;8.30;;;281.70;2278.40;;;;;;5073972;28;20028;-72
2021/06/15 04:31:30;;;;;;;12.65;7.68;;;281.90;2278.40;;;;;;5073657;28;20025;-68
2021/06/15 04:33:58;;;;;;;12.05;6.85;;;282.10;2278.40;;;;;;5073511;28;20024;-67
2021/06/15 04:36:24;;;;;;;10.18;6.75;;;282.20;2278.40;;;;;;5073880;28;20041;-68
2021/06/15 04:39:19;;;;;;;9.85;6.63;;;282.40;2278.40;;;;;;5073158;28;20039;-70
2021/06/15 04:41:56;;;;;;;11.35;6.70;;;307.30;2304.00;;;;;;5056038;28;20506;-70
2021/06/15 04:44:27;;;;;;;19.23;7.80;;;307.50;2304.00;;;;;;5059927;28;20017;-69
2021/06/15 04:47:04;;;;;;;20.52;8.30;;;307.60;2304.00;;;;;;5073320;28;20056;-68
2021/06/15 04:49:36;;;;;;;12.95;8.00;;;307.90;2304.00;;;;;;5073271;28;20032;-67
2021/06/15 04:52:04;;;;;;;17.90;8.85;;;332.90;2329.60;;;;;;5073258;28;20360;-71
2021/06/15 04:54:34;;;;;;;37.13;10.02;;;333.20;2329.60;;;;;;5073186;28;20024;-68
2021/06/15 04:57:07;;;;;;;23.15;10.32;;;333.10;2329.60;;;;;;5073450;28;20352;-68
2021/06/15 04:59:34;;;;;;;24.15;8.82;;;333.10;2329.60;;;;;;5073049;28;20035;-74
2021/06/15 05:02:01;;;;;;;21.13;9.10;;;333.20;2329.60;;;;;;5072907;28;20016;-66
2021/06/15 05:04:27;;;;;;;16.70;7.90;;;333.40;2329.60;;;;;;5072993;28;20021;-69
2021/06/15 05:06:53;;;;;;;14.90;7.57;;;333.40;2329.60;;;;;;5072628;28;20040;-68
2021/06/15 05:09:24;;;;;;;15.85;7.30;;;333.50;2329.60;;;;;;5072849;28;20099;-68
2021/06/15 05:11:52;;;;;;;13.40;6.90;;;333.50;2329.60;;;;;;5073038;28;20474;-69
2021/06/15 05:14:20;;;;;;;11.77;6.65;;;333.60;2329.60;;;;;;5072841;28;20483;-67
2021/06/15 05:16:46;;;;;;;9.73;6.25;;;358.40;2329.60;;;;;;5073011;28;20016;-68
2021/06/15 05:19:12;;;;;;;16.13;6.65;;;333.70;2329.60;;;;;;5072790;28;20103;-67
2021/06/15 05:21:47;;;;;;;8.80;5.93;;;358.50;2329.60;;;;;;5072980;28;20063;-71
2021/06/15 05:24:25;;;;;;;10.18;6.05;;;358.70;2329.60;;;;;;5072593;28;20024;-73
2021/06/15 05:26:51;;;;;;;13.80;7.00;;;358.80;2329.60;;;;;;5072590;28;20398;-70
2021/06/15 05:29:17;;;;;;;13.70;7.47;;;358.90;2329.60;;;;;;5072501;28;20020;-72
2021/06/15 05:31:42;;;;;;;12.43;7.25;;;359.10;2329.60;;;;;;5072697;28;20066;-68
2021/06/15 05:34:08;;;;;;;11.75;7.78;;;359.30;2329.60;;;;;;5072596;28;20013;-70
2021/06/15 05:36:34;;;;;;;10.63;7.93;;;384.10;2329.60;;;;;;5072377;28;20597;-69
2021/06/15 05:38:59;;;;;;;10.90;8.30;;;384.00;2329.60;;;;;;5071213;28;20025;-69
2021/06/15 05:41:25;;;;;;;13.82;8.98;;;384.00;2329.60;;;;;;5072555;28;20510;-68
2021/06/15 05:43:51;;;;;;;13.38;9.07;;;384.00;2329.60;;;;;;5072667;28;20085;-68
2021/06/15 05:46:16;;;;;;;14.32;8.93;;;384.10;2329.60;;;;;;5072578;28;20444;-68
2021/06/15 05:48:42;;;;;;;14.55;10.25;;;384.40;2329.60;;;;;;5072229;28;20039;-68
2021/06/15 05:51:08;;;;;;;14.20;8.90;;;384.80;2329.60;;;;;;5072250;28;20016;-69
2021/06/15 05:53:33;;;;;;;10.65;7.65;;;409.70;2355.20;;;;;;5072704;28;20063;-68
2021/06/15 05:55:59;;;;;;;14.23;8.15;;;409.90;2355.20;;;;;;5072229;28;20025;-69
2021/06/15 05:58:25;;;;;;;11.55;8.40;;;410.00;2355.20;;;;;;5072149;28;20573;-69
2021/06/15 06:00:50;;;;;;;10.15;8.07;;;410.20;2355.20;;;;;;5071941;28;20024;-70
2021/06/15 06:03:24;;;;;;;11.55;7.80;;;410.20;2355.20;;;;;;5071969;28;20108;-69
2021/06/15 06:08:38;;;;;;;11.73;7.43;;;410.00;2355.20;;;;;;5053350;28;20039;-69
2021/06/15 06:11:04;;;;;;;11.82;7.90;;;410.40;2355.20;;;;;;5054721;28;20374;-68
2021/06/15 06:13:30;;;;;;;13.25;7.93;;;435.40;2355.20;;;;;;5069737;28;20025;-69
2021/06/15 06:15:57;;;;;;;14.35;8.15;;;435.60;2355.20;;;;;;5069687;28;20021;-69
2021/06/15 06:18:23;;;;;;;16.88;8.18;;;435.90;2355.20;;;;;;5060231;28;20036;-69
2021/06/15 06:20:49;;;;;;;14.13;8.10;;;435.80;2355.20;;;;;;5057577;28;20087;-69
2021/06/15 06:23:15;;;;;;;15.95;8.00;;;435.70;2355.20;;;;;;5057906;28;20032;-69
2021/06/15 06:25:41;;;;;;;18.55;8.10;;;435.80;2355.20;;;;;;5068085;28;20540;-69
2021/06/15 06:28:07;;;;;;;11.55;7.43;;;435.90;2355.20;;;;;;5063194;28;20021;-69
2021/06/15 06:30:33;;;;;;;13.30;7.57;;;436.10;2355.20;;;;;;5066706;28;20051;-68
2021/06/15 06:32:59;;;;;;;17.23;8.40;;;460.90;2380.80;;;;;;5075487;28;20048;-70
2021/06/15 06:35:25;;;;;;;14.63;7.28;;;461.20;2380.80;;;;;;5075362;28;20029;-69
2021/06/15 06:37:50;;;;;;;12.30;6.70;;;461.40;2380.80;;;;;;5074310;28;20367;-70
2021/06/15 06:40:16;;;;;;;8.57;5.88;;;486.40;2380.80;;;;;;5074427;28;20121;-68
2021/06/15 06:42:42;;;;;;;9.68;5.88;;;486.60;2380.80;;;;;;5075219;28;20025;-70
2021/06/15 06:45:09;;;;;;;9.65;5.80;;;486.80;2380.80;;;;;;5075236;28;20032;-66
2021/06/15 06:47:35;;;;;;;9.13;5.65;;;487.10;2380.80;;;;;;5074966;28;20071;-69
2021/06/15 06:50:01;;;;;;;8.23;5.50;;;487.30;2380.80;;;;;;5075066;28;20101;-69
2021/06/15 06:52:27;;;;;;;8.45;5.35;;;512.20;2380.80;;;;;;5075374;28;20050;-69
2021/06/15 06:54:53;;;;;;;5.88;4.80;;;512.30;2380.80;;;;;;5075187;28;20599;-69
2021/06/15 06:57:18;;;;;;;7.05;4.90;;;512.30;2380.80;;;;;;5075376;28;20028;-69
2021/06/15 06:59:44;;;;;;;7.22;4.47;;;512.60;2380.80;;;;;;5075104;28;20486;-71
2021/06/15 07:02:10;;;;;;;4.88;3.75;;;537.60;2406.40;;;;;;5075224;28;20028;-69
2021/06/15 07:04:35;;;;;;;7.18;4.25;;;538.20;2406.40;;;;;;5074912;28;20019;-71
2021/06/15 07:07:01;;;;;;;6.40;3.80;;;563.60;2432.00;;;;;;5074912;28;20390;-72
2021/06/15 07:09:27;;;;;;;4.97;3.60;;;563.70;2432.00;;;;;;5075345;28;20025;-68
2021/06/15 07:11:53;;;;;;;6.88;4.10;;;588.90;2432.00;;;;;;5074649;28;20099;-69
2021/06/15 07:14:18;;;;;;;5.35;3.90;;;588.90;2432.00;;;;;;5075007;28;20012;-69
2021/06/15 07:16:44;;;;;;;5.25;3.75;;;589.50;2432.00;;;;;;5074805;28;20387;-69
2021/06/15 07:19:10;;;;;;;6.28;4.00;;;589.60;2432.00;;;;;;5074994;28;20075;-71
2021/06/15 07:21:35;;;;;;;6.00;3.30;;;589.40;2432.00;;;;;;5074596;28;20024;-70
2021/06/15 07:24:01;;;;;;;7.93;3.70;;;589.30;2432.00;;;;;;5075121;28;20059;-70
2021/06/15 07:26:27;;;;;;;6.75;3.60;;;589.30;2432.00;;;;;;5074732;28;20169;-70
2021/06/15 07:28:52;;;;;;;6.65;3.60;;;589.40;2432.00;;;;;;5074775;28;20028;-70
2021/06/15 07:31:18;;;;;;;6.32;3.25;;;589.30;2432.00;;;;;;5074735;28;20027;-70
2021/06/15 07:33:44;;;;;;;6.75;3.47;;;589.10;2432.00;;;;;;5074539;28;20025;-70
2021/06/15 07:36:09;;;;;;;5.55;3.30;;;589.20;2432.00;;;;;;5074437;28;20017;-70
2021/06/15 07:38:35;;;;;;;6.13;3.50;;;589.20;2432.00;;;;;;5074400;28;20111;-71
2021/06/15 07:41:02;;;;;;;6.55;3.13;;;589.50;2432.00;;;;;;5074452;28;20070;-70
2021/06/15 07:43:28;;;;;;;5.25;3.33;;;614.60;2432.00;;;;;;5074625;28;20036;-70
2021/06/15 07:45:54;;;;;;;4.53;3.20;;;614.80;2432.00;;;;;;5074650;28;20024;-70
2021/06/15 07:48:20;;;;;;;4.25;3.00;;;614.90;2432.00;;;;;;5074375;28;20086;-70
2021/06/15 07:50:46;;;;;;;5.03;3.00;;;614.90;2432.00;;;;;;5074333;28;20089;-70
2021/06/15 07:53:12;;;;;;;7.70;3.17;;;615.30;2432.00;;;;;;5074407;28;20029;-70
2021/06/15 07:55:37;;;;;;;5.65;3.13;;;640.40;2432.00;;;;;;5074411;28;20491;-70
2021/06/15 07:58:03;;;;;;;5.18;3.20;;;640.30;2432.00;;;;;;5074071;28;20024;-70
2021/06/15 08:00:29;;;;;;;4.53;3.17;;;640.50;2432.00;;;;;;5074134;28;20028;-69
2021/06/15 08:02:55;;;;;;;7.18;3.10;;;640.70;2432.00;;;;;;5074004;28;20025;-70
2021/06/15 08:05:21;;;;;;;4.85;2.88;;;640.50;2432.00;;;;;;5074081;28;20382;-71
2021/06/15 08:07:52;;;;;;;3.97;2.65;;;640.20;2432.00;;;;;;5074261;28;20073;-71
2021/06/15 08:10:19;;;;;;;5.82;3.20;;;640.20;2432.00;;;;;;5074245;28;20021;-71
2021/06/15 08:12:49;;;;;;;4.50;3.10;;;615.30;2432.00;;;;;;5073876;28;20049;-69
2021/06/15 08:15:15;;;;;;;6.78;2.75;;;615.30;2432.00;;;;;;5073892;28;20387;-71
2021/06/15 08:17:41;;;;;;;4.43;3.00;;;640.20;2432.00;;;;;;5074064;28;20029;-70
2021/06/15 08:20:08;;;;;;;4.55;2.90;;;615.10;2432.00;;;;;;5073948;28;20032;-69
2021/06/15 08:22:33;;;;;;;4.90;3.00;;;640.00;2432.00;;;;;;5073942;28;20111;-71
2021/06/15 08:24:59;;;;;;;5.95;2.92;;;640.70;2432.00;;;;;;5073756;28;20489;-71
2021/06/15 08:27:25;;;;;;;5.72;2.92;;;640.90;2432.00;;;;;;5073568;28;20052;-70
2021/06/15 08:29:51;;;;;;;5.32;2.70;;;640.90;2432.00;;;;;;5073692;28;20021;-70
2021/06/15 08:32:17;;;;;;;3.60;2.45;;;665.60;2432.00;;;;;;5073959;28;20024;-70
2021/06/15 08:34:42;;;;;;;4.43;2.80;;;640.90;2432.00;;;;;;5073792;28;20060;-70
2021/06/15 08:37:08;;;;;;;5.40;2.85;;;640.60;2432.00;;;;;;5072690;28;20086;-71
2021/06/15 08:39:34;;;;;;;4.13;2.97;;;640.60;2432.00;;;;;;5073139;28;20491;-68
2021/06/15 08:41:59;;;;;;;8.63;4.05;;;640.50;2432.00;;;;;;5073470;28;20070;-70
2021/06/15 08:44:25;;;;;;;5.18;2.70;;;640.70;2432.00;;;;;;5073236;28;20021;-71
2021/06/15 08:46:52;;;;;;;3.95;2.70;;;640.50;2432.00;;;;;;5073506;28;20021;-72
2021/06/15 08:49:18;;;;;;;4.15;2.60;;;640.00;2432.00;;;;;;5072905;28;20030;-75
2021/06/15 08:51:45;;;;;;;4.15;2.60;;;615.30;2432.00;;;;;;5073110;28;20024;-74
2021/06/15 08:54:15;;;;;;;4.88;2.55;;;614.90;2432.00;;;;;;5072783;28;20100;-73
2021/06/15 08:56:42;;;;;;;4.82;2.60;;;615.30;2432.00;;;;;;5073115;28;20024;-74
2021/06/15 08:59:23;;;;;;;4.32;2.50;;;640.20;2432.00;;;;;;5072962;28;20399;-74
2021/06/15 09:01:50;;;;;;;;;;;640.30;2432.00;;;;;;5073168;28;20020;-74
2021/06/15 09:04:16;;;;;;;3.92;2.13;;;615.30;2432.00;;;;;;5072876;28;19917;-75
2021/06/15 09:06:42;;;;;;;3.40;2.22;;;615.00;2432.00;;;;;;5072690;28;20024;-73
2021/06/15 09:09:08;;;;;;;4.10;2.20;;;640.00;2432.00;;;;;;5072821;28;20490;-71
2021/06/15 09:11:47;;;;;;;4.32;2.20;;;640.20;2432.00;;;;;;5072094;28;20111;-71
2021/06/15 09:14:13;;;;;;;3.25;1.90;;;640.30;2406.40;;;;;;5072915;28;20348;-70
2021/06/15 09:16:47;;;;;;;3.00;2.00;;;640.20;2406.40;;;;;;5072775;28;20104;-70
2021/06/15 09:19:21;;;;;;;3.90;2.08;;;640.70;2355.20;;;;;;5072908;28;20167;-70
2021/06/15 09:21:48;;;;;;;3.95;1.88;;;640.90;2355.20;;;;;;5054617;28;20028;-70
2021/06/15 09:24:25;;;;;;;4.68;2.83;;;665.60;2355.20;;;;;;5072486;28;20146;-70
2021/06/15 09:27:10;;;;;;;5.38;3.22;;;665.60;2304.00;;;;;;5072798;28;20036;-71
2021/06/15 09:29:37;;;;;;;3.22;2.00;;;665.60;2329.60;;;;;;5072604;28;20020;-71
2021/06/15 09:32:04;;;;;;;4.45;2.60;;;640.90;2304.00;;;;;;5072647;28;20031;-70
2021/06/15 09:34:30;;;;;;;4.28;2.13;;;665.60;2304.00;;;;;;5072625;28;20063;-71
2021/06/15 09:36:55;;;;;;;4.25;1.80;;;640.70;2278.40;;;;;;5072308;28;20411;-70
2021/06/15 09:39:21;;;;;;;4.68;2.50;;;665.60;2304.00;;;;;;5072273;28;20044;-70
2021/06/15 09:41:49;;;;;;;3.60;1.95;;;665.70;2278.40;;;;;;5072553;28;20032;-70
2021/06/15 09:44:25;;;;;;;3.92;2.10;;;665.60;2304.00;;;;;;5072157;28;20024;-70
2021/06/15 09:46:52;;;;;;;3.47;2.00;;;665.60;2252.80;;;;;;5072746;28;20391;-70
2021/06/15 09:49:31;;;;;;;3.58;2.10;;;665.60;2278.40;;;;;;5072160;28;20044;-69
2021/06/15 09:52:20;;;;;;;3.75;2.20;;;640.80;2227.20;;;;;;5072150;28;20077;-69
2021/06/15 09:54:52;;;;;;;4.57;2.17;;;640.70;2278.40;;;;;;5072131;28;20533;-69
2021/06/15 09:57:20;;;;;;;4.00;1.98;;;640.60;2304.00;;;;;;5072105;28;20024;-70
2021/06/15 10:00:11;;;;;;;3.38;1.90;;;640.80;2278.40;;;;;;5072160;28;20024;-69
2021/06/15 10:02:56;;;;;;;3.90;2.08;;;640.60;2278.40;;;;;;5072372;28;20028;-71
2021/06/15 10:05:26;;;;;;;3.80;1.83;;;640.60;2304.00;;;;;;5059596;28;20487;-76
2021/06/15 10:07:52;;;;;;;2.85;1.85;;;640.60;2227.20;;;;;;5072502;28;20066;-76
2021/06/15 10:10:21;;;;;;;2.80;1.73;;;640.70;2227.20;;;;;;5072121;28;20111;-72
2021/06/15 10:12:49;;;;;;;4.00;1.80;;;665.60;2252.80;;;;;;5072124;28;20502;-73
2021/06/15 10:15:15;;;;;;;3.88;2.05;;;665.70;2252.80;;;;;;5072263;28;20032;-73
2021/06/15 10:17:42;;;;;;;3.45;1.75;;;665.80;2176.00;;;;;;5072147;28;20048;-78
2021/06/15 10:20:09;;;;;;;3.35;1.83;;;665.80;2227.20;;;;;;5071957;28;20021;-78
2021/06/15 10:22:36;;;;;;;3.25;1.75;;;665.60;2201.60;;;;;;5071962;28;20095;-77
2021/06/15 10:25:04;;;;;;;2.72;1.70;;;665.70;2201.60;;;;;;5071889;28;20484;-74
2021/06/15 10:27:31;;;;;;;3.60;1.90;;;665.60;2176.00;;;;;;5071905;28;20028;-77
2021/06/15 10:29:57;;;;;;;3.88;1.75;;;640.90;2201.60;;;;;;5071826;28;20027;-77
2021/06/15 10:32:24;;;;;;;2.92;1.70;;;665.70;2201.60;;;;;;5071859;28;20045;-77
2021/06/15 10:34:57;;;;;;;2.90;1.60;;;666.00;2176.00;;;;;;5071933;28;20075;-76
2021/06/15 10:37:32;;;;;;;3.08;1.70;;;665.90;2124.80;;;;;;5071779;28;20020;-69
2021/06/15 10:40:11;;;;;;;3.70;1.60;;;666.00;2124.80;;;;;;5071547;28;20045;-72
2021/06/15 10:42:37;;;;;;;3.20;1.48;;;666.20;2124.80;;;;;;5058495;28;20458;-76
2021/06/15 10:45:12;;;;;;;2.70;1.70;;;666.20;2124.80;;;;;;5071928;28;20026;-70
2021/06/15 10:48:01;;;;;;;4.05;1.60;;;666.30;2124.80;;;;;;5071798;28;20090;-77
2021/06/15 10:50:54;;;;;;;2.90;1.60;;;666.20;2099.20;;;;;;5057161;28;20491;-75
2021/06/15 10:53:34;;;;;;;2.58;1.33;;;666.50;2073.60;;;;;;5060452;28;20032;-72
2021/06/15 10:56:07;;;;;;;;;;;691.20;2099.20;;;;;;5053914;28;20024;-69
2021/06/15 10:58:36;;;;;;;3.70;1.48;;;666.30;2073.60;;;;;;5053682;28;19909;-73
2021/06/15 11:01:28;;;;;;;3.03;1.48;;;666.20;2099.20;;;;;;5065798;28;20368;-79
2021/06/15 11:04:24;;;;;;;3.97;1.50;;;666.00;2099.20;;;;;;5048534;28;20462;-70
2021/06/15 11:06:52;;;;;;;2.47;1.45;;;666.10;2099.20;;;;;;5053082;28;20033;-71
2021/06/15 11:09:33;;;;;;;2.90;1.50;;;665.70;2099.20;;;;;;5071258;28;20036;-72
2021/06/15 11:11:59;;;;;;;3.25;1.40;;;640.70;2124.80;;;;;;5061014;28;20435;-74
2021/06/15 11:14:24;;;;;;;3.92;1.52;;;640.90;2150.40;;;;;;5062414;28;20029;-77
2021/06/15 11:16:52;;;;;;;3.83;1.60;;;666.00;2176.00;;;;;;5062103;28;20514;-78
2021/06/15 11:19:18;;;;;;;3.67;1.50;;;666.20;2176.00;;;;;;5069237;28;20023;-71
2021/06/15 11:21:46;;;;;;;2.95;1.58;;;665.90;2150.40;;;;;;5074320;28;20028;-70
2021/06/15 11:25:01;;;;;;;3.25;1.40;;;640.90;2124.80;;;;;;5074302;28;20082;-69
2021/06/15 11:27:27;;;;;;;2.80;1.40;;;665.80;2176.00;;;;;;5073330;28;20024;-75
2021/06/15 11:30:01;;;;;;;2.83;1.60;;;666.00;2150.40;;;;;;5074382;28;20028;-70
2021/06/15 11:32:29;;;;;;;2.45;1.30;;;665.90;2176.00;;;;;;5073293;28;20019;-72
2021/06/15 11:35:15;;;;;;;3.20;1.50;;;666.00;2150.40;;;;;;5074330;28;20020;-71
2021/06/15 11:37:51;;;;;;;3.00;1.50;;;666.20;2150.40;;;;;;5055840;28;20017;-69
2021/06/15 11:40:32;;;;;;;3.78;1.50;;;666.20;2176.00;;;;;;5055444;28;20069;-71
2021/06/15 11:43:07;;;;;;;;;;;666.00;2150.40;;;;;;5054716;28;20474;-77
2021/06/15 11:45:35;;;;;;;2.50;1.50;;;665.80;2124.80;;;;;;5063724;28;19908;-73
2021/06/15 11:48:35;;;;;;;2.47;1.50;;;665.60;2124.80;;;;;;5074237;28;20107;-69
2021/06/15 11:51:26;;;;;;;3.72;1.65;;;665.90;2150.40;;;;;;5073791;28;20059;-69
2021/06/15 11:53:54;;;;;;;2.38;1.40;;;666.00;2150.40;;;;;;5074183;28;20359;-76
2021/06/15 11:56:23;;;;;;;2.45;1.40;;;666.20;2124.80;;;;;;5075696;28;20382;-72
2021/06/15 11:58:55;;;;;;;2.63;1.48;;;666.40;2124.80;;;;;;5073817;28;20090;-69
2021/06/15 12:01:22;;;;;;;3.08;1.60;;;666.40;2124.80;;;;;;5074302;28;20561;-69
2021/06/15 12:03:49;;;;;;;2.50;1.48;;;666.10;2124.80;;;;;;5074475;28;20028;-70
2021/06/15 12:06:17;;;;;;;2.80;1.40;;;665.90;2176.00;;;;;;5073982;28;20549;-68
2021/06/15 12:08:45;;;;;;;4.05;1.40;;;666.10;2176.00;;;;;;5074018;28;20028;-69
2021/06/15 12:11:16;;;;;;;4.20;1.50;;;666.00;2150.40;;;;;;5073726;28;20043;-69
2021/06/15 12:13:43;;;;;;;3.00;1.80;;;665.90;2124.80;;;;;;5072516;28;20025;-70
2021/06/15 12:16:15;;;;;;;3.38;1.60;;;665.90;2124.80;;;;;;5061277;28;20032;-70
2021/06/15 12:18:51;;;;;;;2.80;1.55;;;666.00;2124.80;;;;;;5062025;28;20024;-73
2021/06/15 12:21:24;;;;;;;3.05;1.50;;;666.30;2124.80;;;;;;5073102;28;20024;-68
2021/06/15 12:23:50;;;;;;;5.03;1.70;;;666.50;2124.80;;;;;;5073120;28;20016;-68
2021/06/15 12:26:21;;;;;;;4.88;1.83;;;666.50;2150.40;;;;;;5073100;28;20020;-72
2021/06/15 12:28:53;;;;;;;;;;;666.20;2150.40;;;;;;5066143;28;20047;-73
2021/06/15 12:31:32;;;;;;;2.95;1.67;;;666.00;2150.40;;;;;;5072864;28;19953;-77